sensor_id;sensor_type;location;lat;lon;timestamp;P1;durP1;ratioP1;P2;durP2;ratioP2
17365;SDS011;8800;50.118;9.900;2023-11-19T00:02:23;10.43;;;5.88;;
17365;SDS011;8800;50.118;9.900;2023-11-19T00:04:50;9.65;;;5.45;;
17365;SDS011;8800;50.118;9.900;2023-11-19T00:07:16;9.45;;;5.45;;
17365;SDS011;8800;50.118;9.900;2023-11-19T00:09:43;11.38;;;5.63;;
17365;SDS011;8800;50.118;9.900;2023-11-19T00:12:10;9.98;;;5.70;;
17365;SDS011;8800;50.118;9.900;2023-11-19T00:14:38;9.85;;;5.55;;
17365;SDS011;8800;50.118;9.900;2023-11-19T00:17:06;10.90;;;5.68;;
17365;SDS011;8800;50.118;9.900;2023-11-19T00:19:32;9.80;;;5.53;;
17365;SDS011;8800;50.118;9.900;2023-11-19T00:21:59;12.15;;;6.25;;
17365;SDS011;8800;50.118;9.900;2023-11-19T00:24:28;10.38;;;5.80;;
17365;SDS011;8800;50.118;9.900;2023-11-19T00:26:54;9.50;;;5.10;;
17365;SDS011;8800;50.118;9.900;2023-11-19T00:29:21;9.35;;;5.03;;
17365;SDS011;8800;50.118;9.900;2023-11-19T00:31:48;11.07;;;5.85;;
17365;SDS011;8800;50.118;9.900;2023-11-19T00:34:17;14.20;;;6.75;;
17365;SDS011;8800;50.118;9.900;2023-11-19T00:36:46;11.00;;;5.90;;
17365;SDS011;8800;50.118;9.900;2023-11-19T00:39:13;10.65;;;5.82;;
17365;SDS011;8800;50.118;9.900;2023-11-19T00:41:40;12.90;;;6.53;;
17365;SDS011;8800;50.118;9.900;2023-11-19T00:44:07;12.18;;;6.03;;
17365;SDS011;8800;50.118;9.900;2023-11-19T00:46:33;10.10;;;5.82;;
17365;SDS011;8800;50.118;9.900;2023-11-19T00:49:00;11.48;;;6.00;;
17365;SDS011;8800;50.118;9.900;2023-11-19T00:51:28;9.95;;;6.03;;
17365;SDS011;8800;50.118;9.900;2023-11-19T00:53:56;10.38;;;5.55;;
17365;SDS011;8800;50.118;9.900;2023-11-19T00:56:23;12.18;;;6.07;;
17365;SDS011;8800;50.118;9.900;2023-11-19T00:58:49;11.38;;;5.75;;
17365;SDS011;8800;50.118;9.900;2023-11-19T01:01:16;9.52;;;5.70;;
17365;SDS011;8800;50.118;9.900;2023-11-19T01:03:42;12.60;;;5.90;;
17365;SDS011;8800;50.118;9.900;2023-11-19T01:06:09;10.38;;;5.90;;
17365;SDS011;8800;50.118;9.900;2023-11-19T01:08:37;10.70;;;5.60;;
17365;SDS011;8800;50.118;9.900;2023-11-19T01:11:04;10.38;;;5.53;;
17365;SDS011;8800;50.118;9.900;2023-11-19T01:13:30;11.23;;;6.38;;
17365;SDS011;8800;50.118;9.900;2023-11-19T01:15:57;10.18;;;5.75;;
17365;SDS011;8800;50.118;9.900;2023-11-19T01:18:23;10.27;;;5.35;;
17365;SDS011;8800;50.118;9.900;2023-11-19T01:20:50;9.82;;;5.40;;
17365;SDS011;8800;50.118;9.900;2023-11-19T01:23:17;12.27;;;6.25;;
17365;SDS011;8800;50.118;9.900;2023-11-19T01:25:45;10.98;;;6.30;;
17365;SDS011;8800;50.118;9.900;2023-11-19T01:28:13;10.93;;;5.85;;
17365;SDS011;8800;50.118;9.900;2023-11-19T01:30:40;10.45;;;5.97;;
17365;SDS011;8800;50.118;9.900;2023-11-19T01:33:06;9.20;;;5.45;;
17365;SDS011;8800;50.118;9.900;2023-11-19T01:35:33;9.25;;;5.45;;
17365;SDS011;8800;50.118;9.900;2023-11-19T01:38:00;9.13;;;5.35;;
17365;SDS011;8800;50.118;9.900;2023-11-19T01:40:26;12.13;;;5.70;;
17365;SDS011;8800;50.118;9.900;2023-11-19T01:42:54;8.98;;;5.72;;
17365;SDS011;8800;50.118;9.900;2023-11-19T01:45:22;10.30;;;5.43;;
17365;SDS011;8800;50.118;9.900;2023-11-19T01:47:52;9.80;;;5.13;;
17365;SDS011;8800;50.118;9.900;2023-11-19T01:50:19;9.82;;;5.53;;
17365;SDS011;8800;50.118;9.900;2023-11-19T01:52:46;11.05;;;5.25;;
17365;SDS011;8800;50.118;9.900;2023-11-19T01:55:12;11.20;;;5.97;;
17365;SDS011;8800;50.118;9.900;2023-11-19T01:57:39;9.70;;;5.78;;
17365;SDS011;8800;50.118;9.900;2023-11-19T02:00:08;13.20;;;6.20;;
17365;SDS011;8800;50.118;9.900;2023-11-19T02:02:37;9.73;;;5.68;;
17365;SDS011;8800;50.118;9.900;2023-11-19T02:05:05;10.43;;;5.75;;
17365;SDS011;8800;50.118;9.900;2023-11-19T02:07:31;11.68;;;5.90;;
17365;SDS011;8800;50.118;9.900;2023-11-19T02:09:58;10.68;;;5.90;;
17365;SDS011;8800;50.118;9.900;2023-11-19T02:12:26;13.48;;;6.55;;
17365;SDS011;8800;50.118;9.900;2023-11-19T02:14:54;11.13;;;5.95;;
17365;SDS011;8800;50.118;9.900;2023-11-19T02:17:28;13.68;;;6.72;;
17365;SDS011;8800;50.118;9.900;2023-11-19T02:19:56;13.63;;;6.20;;
17365;SDS011;8800;50.118;9.900;2023-11-19T02:22:23;14.57;;;6.40;;
17365;SDS011;8800;50.118;9.900;2023-11-19T02:24:51;12.18;;;5.90;;
17365;SDS011;8800;50.118;9.900;2023-11-19T02:27:21;11.18;;;5.95;;
17365;SDS011;8800;50.118;9.900;2023-11-19T02:29:51;12.90;;;5.82;;
17365;SDS011;8800;50.118;9.900;2023-11-19T02:32:18;11.73;;;6.07;;
17365;SDS011;8800;50.118;9.900;2023-11-19T02:34:45;12.25;;;6.18;;
17365;SDS011;8800;50.118;9.900;2023-11-19T02:37:12;10.43;;;5.78;;
17365;SDS011;8800;50.118;9.900;2023-11-19T02:39:40;10.32;;;5.20;;
17365;SDS011;8800;50.118;9.900;2023-11-19T02:42:06;11.35;;;5.65;;
17365;SDS011;8800;50.118;9.900;2023-11-19T02:44:33;10.02;;;5.13;;
17365;SDS011;8800;50.118;9.900;2023-11-19T02:47:01;8.95;;;4.78;;
17365;SDS011;8800;50.118;9.900;2023-11-19T02:49:28;8.23;;;4.90;;
17365;SDS011;8800;50.118;9.900;2023-11-19T02:51:55;9.18;;;5.18;;
17365;SDS011;8800;50.118;9.900;2023-11-19T02:54:22;11.85;;;5.70;;
17365;SDS011;8800;50.118;9.900;2023-11-19T02:56:52;11.00;;;5.53;;
17365;SDS011;8800;50.118;9.900;2023-11-19T02:59:24;14.95;;;7.88;;
17365;SDS011;8800;50.118;9.900;2023-11-19T03:02:05;17.65;;;8.38;;
17365;SDS011;8800;50.118;9.900;2023-11-19T03:04:32;27.67;;;9.23;;
17365;SDS011;8800;50.118;9.900;2023-11-19T03:06:59;20.60;;;9.05;;
17365;SDS011;8800;50.118;9.900;2023-11-19T03:09:26;23.40;;;9.75;;
17365;SDS011;8800;50.118;9.900;2023-11-19T03:11:54;17.65;;;8.77;;
17365;SDS011;8800;50.118;9.900;2023-11-19T03:14:21;18.02;;;8.63;;
17365;SDS011;8800;50.118;9.900;2023-11-19T03:16:48;14.18;;;7.47;;
17365;SDS011;8800;50.118;9.900;2023-11-19T03:19:16;12.95;;;6.63;;
17365;SDS011;8800;50.118;9.900;2023-11-19T03:21:42;14.30;;;6.70;;
17365;SDS011;8800;50.118;9.900;2023-11-19T03:24:10;11.82;;;6.60;;
17365;SDS011;8800;50.118;9.900;2023-11-19T03:26:36;10.60;;;5.68;;
17365;SDS011;8800;50.118;9.900;2023-11-19T03:29:03;11.25;;;6.20;;
17365;SDS011;8800;50.118;9.900;2023-11-19T03:31:29;12.80;;;7.00;;
17365;SDS011;8800;50.118;9.900;2023-11-19T03:33:56;16.08;;;8.70;;
17365;SDS011;8800;50.118;9.900;2023-11-19T03:36:24;30.17;;;15.45;;
17365;SDS011;8800;50.118;9.900;2023-11-19T03:38:51;27.10;;;13.02;;
17365;SDS011;8800;50.118;9.900;2023-11-19T03:41:17;29.25;;;14.70;;
17365;SDS011;8800;50.118;9.900;2023-11-19T03:43:44;35.20;;;17.27;;
17365;SDS011;8800;50.118;9.900;2023-11-19T03:46:17;34.00;;;15.88;;
17365;SDS011;8800;50.118;9.900;2023-11-19T03:48:44;36.97;;;16.23;;
17365;SDS011;8800;50.118;9.900;2023-11-19T03:51:11;34.33;;;15.18;;
17365;SDS011;8800;50.118;9.900;2023-11-19T03:53:41;32.88;;;14.88;;
17365;SDS011;8800;50.118;9.900;2023-11-19T03:56:08;36.03;;;16.67;;
17365;SDS011;8800;50.118;9.900;2023-11-19T03:58:35;34.65;;;16.13;;
17365;SDS011;8800;50.118;9.900;2023-11-19T04:01:03;29.92;;;14.02;;
17365;SDS011;8800;50.118;9.900;2023-11-19T04:03:30;29.65;;;13.88;;
17365;SDS011;8800;50.118;9.900;2023-11-19T04:05:56;32.03;;;14.60;;
17365;SDS011;8800;50.118;9.900;2023-11-19T04:08:24;32.55;;;14.57;;
17365;SDS011;8800;50.118;9.900;2023-11-19T04:10:52;35.60;;;15.23;;
17365;SDS011;8800;50.118;9.900;2023-11-19T04:13:19;30.27;;;13.65;;
17365;SDS011;8800;50.118;9.900;2023-11-19T04:15:45;31.17;;;14.23;;
17365;SDS011;8800;50.118;9.900;2023-11-19T04:18:12;33.45;;;15.25;;
17365;SDS011;8800;50.118;9.900;2023-11-19T04:20:39;32.80;;;15.32;;
17365;SDS011;8800;50.118;9.900;2023-11-19T04:23:07;34.05;;;15.35;;
17365;SDS011;8800;50.118;9.900;2023-11-19T04:25:34;30.98;;;14.82;;
17365;SDS011;8800;50.118;9.900;2023-11-19T04:28:02;17.25;;;8.95;;
17365;SDS011;8800;50.118;9.900;2023-11-19T04:30:29;22.00;;;10.30;;
17365;SDS011;8800;50.118;9.900;2023-11-19T04:32:56;28.35;;;12.00;;
17365;SDS011;8800;50.118;9.900;2023-11-19T04:35:23;22.58;;;10.30;;
17365;SDS011;8800;50.118;9.900;2023-11-19T04:37:51;23.50;;;11.38;;
17365;SDS011;8800;50.118;9.900;2023-11-19T04:40:17;23.80;;;11.18;;
17365;SDS011;8800;50.118;9.900;2023-11-19T04:42:44;19.75;;;10.18;;
17365;SDS011;8800;50.118;9.900;2023-11-19T04:45:12;31.15;;;13.98;;
17365;SDS011;8800;50.118;9.900;2023-11-19T04:47:39;25.77;;;13.07;;
17365;SDS011;8800;50.118;9.900;2023-11-19T04:50:05;29.10;;;14.27;;
17365;SDS011;8800;50.118;9.900;2023-11-19T04:52:32;27.52;;;12.82;;
17365;SDS011;8800;50.118;9.900;2023-11-19T04:54:59;26.85;;;12.43;;
17365;SDS011;8800;50.118;9.900;2023-11-19T04:57:26;27.05;;;12.07;;
17365;SDS011;8800;50.118;9.900;2023-11-19T04:59:53;27.50;;;12.00;;
17365;SDS011;8800;50.118;9.900;2023-11-19T05:02:21;22.50;;;11.25;;
17365;SDS011;8800;50.118;9.900;2023-11-19T05:04:47;21.17;;;10.10;;
17365;SDS011;8800;50.118;9.900;2023-11-19T05:07:14;20.25;;;10.60;;
17365;SDS011;8800;50.118;9.900;2023-11-19T05:09:41;18.23;;;9.63;;
17365;SDS011;8800;50.118;9.900;2023-11-19T05:12:08;18.25;;;9.65;;
17365;SDS011;8800;50.118;9.900;2023-11-19T05:14:37;16.98;;;8.93;;
17365;SDS011;8800;50.118;9.900;2023-11-19T05:17:04;19.70;;;9.30;;
17365;SDS011;8800;50.118;9.900;2023-11-19T05:19:31;24.77;;;11.38;;
17365;SDS011;8800;50.118;9.900;2023-11-19T05:21:58;22.52;;;10.90;;
17365;SDS011;8800;50.118;9.900;2023-11-19T05:24:24;27.90;;;12.27;;
17365;SDS011;8800;50.118;9.900;2023-11-19T05:26:51;22.38;;;11.32;;
17365;SDS011;8800;50.118;9.900;2023-11-19T05:29:18;32.72;;;12.57;;
17365;SDS011;8800;50.118;9.900;2023-11-19T05:31:45;26.45;;;12.00;;
17365;SDS011;8800;50.118;9.900;2023-11-19T05:34:12;28.20;;;12.07;;
17365;SDS011;8800;50.118;9.900;2023-11-19T05:36:41;27.20;;;11.20;;
17365;SDS011;8800;50.118;9.900;2023-11-19T05:39:08;26.88;;;11.80;;
17365;SDS011;8800;50.118;9.900;2023-11-19T05:41:36;22.75;;;10.95;;
17365;SDS011;8800;50.118;9.900;2023-11-19T05:44:03;24.60;;;11.48;;
17365;SDS011;8800;50.118;9.900;2023-11-19T05:46:30;18.95;;;8.55;;
17365;SDS011;8800;50.118;9.900;2023-11-19T05:48:56;19.58;;;9.15;;
17365;SDS011;8800;50.118;9.900;2023-11-19T05:51:24;15.63;;;7.78;;
17365;SDS011;8800;50.118;9.900;2023-11-19T05:53:52;19.48;;;8.27;;
17365;SDS011;8800;50.118;9.900;2023-11-19T05:56:20;22.67;;;10.43;;
17365;SDS011;8800;50.118;9.900;2023-11-19T05:58:47;25.80;;;11.30;;
17365;SDS011;8800;50.118;9.900;2023-11-19T06:01:14;25.65;;;11.27;;
17365;SDS011;8800;50.118;9.900;2023-11-19T06:03:41;26.45;;;11.75;;
17365;SDS011;8800;50.118;9.900;2023-11-19T06:06:12;21.67;;;10.73;;
17365;SDS011;8800;50.118;9.900;2023-11-19T06:08:39;26.48;;;11.88;;
17365;SDS011;8800;50.118;9.900;2023-11-19T06:11:07;23.35;;;10.82;;
17365;SDS011;8800;50.118;9.900;2023-11-19T06:13:34;24.10;;;11.52;;
17365;SDS011;8800;50.118;9.900;2023-11-19T06:16:00;23.88;;;11.30;;
17365;SDS011;8800;50.118;9.900;2023-11-19T06:18:28;23.33;;;12.18;;
17365;SDS011;8800;50.118;9.900;2023-11-19T06:20:56;27.13;;;12.68;;
17365;SDS011;8800;50.118;9.900;2023-11-19T06:23:23;24.65;;;11.45;;
17365;SDS011;8800;50.118;9.900;2023-11-19T06:25:49;24.15;;;12.23;;
17365;SDS011;8800;50.118;9.900;2023-11-19T06:28:18;21.77;;;9.45;;
17365;SDS011;8800;50.118;9.900;2023-11-19T06:30:46;13.60;;;6.75;;
17365;SDS011;8800;50.118;9.900;2023-11-19T06:33:15;9.23;;;4.72;;
17365;SDS011;8800;50.118;9.900;2023-11-19T06:35:41;22.55;;;10.40;;
17365;SDS011;8800;50.118;9.900;2023-11-19T06:38:08;30.38;;;14.40;;
17365;SDS011;8800;50.118;9.900;2023-11-19T06:40:35;29.20;;;13.98;;
17365;SDS011;8800;50.118;9.900;2023-11-19T06:43:01;29.08;;;13.32;;
17365;SDS011;8800;50.118;9.900;2023-11-19T06:45:30;27.05;;;12.85;;
17365;SDS011;8800;50.118;9.900;2023-11-19T06:47:56;24.73;;;12.80;;
17365;SDS011;8800;50.118;9.900;2023-11-19T06:50:23;27.67;;;13.00;;
17365;SDS011;8800;50.118;9.900;2023-11-19T06:52:50;27.10;;;13.75;;
17365;SDS011;8800;50.118;9.900;2023-11-19T06:55:17;27.90;;;14.82;;
17365;SDS011;8800;50.118;9.900;2023-11-19T06:57:43;32.53;;;16.85;;
17365;SDS011;8800;50.118;9.900;2023-11-19T07:00:11;32.55;;;16.52;;
17365;SDS011;8800;50.118;9.900;2023-11-19T07:02:39;28.58;;;15.43;;
17365;SDS011;8800;50.118;9.900;2023-11-19T07:05:06;35.42;;;18.10;;
17365;SDS011;8800;50.118;9.900;2023-11-19T07:07:33;35.42;;;18.60;;
17365;SDS011;8800;50.118;9.900;2023-11-19T07:10:00;37.00;;;18.85;;
17365;SDS011;8800;50.118;9.900;2023-11-19T07:12:27;27.92;;;15.30;;
17365;SDS011;8800;50.118;9.900;2023-11-19T07:14:54;30.38;;;17.77;;
17365;SDS011;8800;50.118;9.900;2023-11-19T07:17:21;27.48;;;16.35;;
17365;SDS011;8800;50.118;9.900;2023-11-19T07:19:50;36.88;;;21.73;;
17365;SDS011;8800;50.118;9.900;2023-11-19T07:22:17;53.45;;;27.17;;
17365;SDS011;8800;50.118;9.900;2023-11-19T07:24:42;12.07;;;7.45;;
17365;SDS011;8800;50.118;9.900;2023-11-19T07:27:09;9.77;;;6.70;;
17365;SDS011;8800;50.118;9.900;2023-11-19T07:29:36;11.38;;;6.55;;
17365;SDS011;8800;50.118;9.900;2023-11-19T07:32:03;12.68;;;9.13;;
17365;SDS011;8800;50.118;9.900;2023-11-19T07:34:30;10.23;;;6.32;;
17365;SDS011;8800;50.118;9.900;2023-11-19T07:36:58;10.18;;;7.00;;
17365;SDS011;8800;50.118;9.900;2023-11-19T07:39:28;18.10;;;11.52;;
17365;SDS011;8800;50.118;9.900;2023-11-19T07:41:54;11.52;;;7.80;;
17365;SDS011;8800;50.118;9.900;2023-11-19T07:44:21;14.00;;;9.65;;
17365;SDS011;8800;50.118;9.900;2023-11-19T07:46:47;7.97;;;5.70;;
17365;SDS011;8800;50.118;9.900;2023-11-19T07:49:14;6.32;;;4.00;;
17365;SDS011;8800;50.118;9.900;2023-11-19T07:51:41;12.77;;;7.03;;
17365;SDS011;8800;50.118;9.900;2023-11-19T07:54:09;25.27;;;14.57;;
17365;SDS011;8800;50.118;9.900;2023-11-19T07:56:35;33.28;;;18.95;;
17365;SDS011;8800;50.118;9.900;2023-11-19T07:59:02;25.10;;;15.25;;
17365;SDS011;8800;50.118;9.900;2023-11-19T08:01:28;25.38;;;15.07;;
17365;SDS011;8800;50.118;9.900;2023-11-19T08:03:55;11.85;;;7.63;;
17365;SDS011;8800;50.118;9.900;2023-11-19T08:06:21;12.98;;;8.90;;
17365;SDS011;8800;50.118;9.900;2023-11-19T08:08:48;16.98;;;9.55;;
17365;SDS011;8800;50.118;9.900;2023-11-19T08:11:16;5.95;;;4.25;;
17365;SDS011;8800;50.118;9.900;2023-11-19T08:13:44;7.55;;;5.18;;
17365;SDS011;8800;50.118;9.900;2023-11-19T08:16:11;7.63;;;4.97;;
17365;SDS011;8800;50.118;9.900;2023-11-19T08:18:38;7.90;;;5.45;;
17365;SDS011;8800;50.118;9.900;2023-11-19T08:21:05;5.30;;;3.65;;
17365;SDS011;8800;50.118;9.900;2023-11-19T08:23:32;8.70;;;4.95;;
17365;SDS011;8800;50.118;9.900;2023-11-19T08:25:58;3.40;;;2.40;;
17365;SDS011;8800;50.118;9.900;2023-11-19T08:28:26;3.80;;;2.95;;
17365;SDS011;8800;50.118;9.900;2023-11-19T08:30:53;6.18;;;2.75;;
17365;SDS011;8800;50.118;9.900;2023-11-19T08:33:20;3.67;;;2.03;;
17365;SDS011;8800;50.118;9.900;2023-11-19T08:35:47;4.00;;;2.15;;
17365;SDS011;8800;50.118;9.900;2023-11-19T08:38:14;8.52;;;2.60;;
17365;SDS011;8800;50.118;9.900;2023-11-19T08:40:41;5.25;;;2.83;;
17365;SDS011;8800;50.118;9.900;2023-11-19T08:43:07;3.92;;;2.38;;
17365;SDS011;8800;50.118;9.900;2023-11-19T08:45:35;4.45;;;2.60;;
17365;SDS011;8800;50.118;9.900;2023-11-19T08:48:02;3.83;;;1.52;;
17365;SDS011;8800;50.118;9.900;2023-11-19T08:50:29;3.45;;;1.98;;
17365;SDS011;8800;50.118;9.900;2023-11-19T08:52:56;2.38;;;1.55;;
17365;SDS011;8800;50.118;9.900;2023-11-19T08:55:23;2.22;;;1.40;;
17365;SDS011;8800;50.118;9.900;2023-11-19T08:57:51;2.63;;;1.50;;
17365;SDS011;8800;50.118;9.900;2023-11-19T09:00:17;2.83;;;1.45;;
17365;SDS011;8800;50.118;9.900;2023-11-19T09:02:47;2.38;;;1.20;;
17365;SDS011;8800;50.118;9.900;2023-11-19T09:05:14;3.22;;;1.40;;
17365;SDS011;8800;50.118;9.900;2023-11-19T09:07:41;3.20;;;1.30;;
17365;SDS011;8800;50.118;9.900;2023-11-19T09:10:08;2.47;;;1.40;;
17365;SDS011;8800;50.118;9.900;2023-11-19T09:12:35;4.38;;;1.15;;
17365;SDS011;8800;50.118;9.900;2023-11-19T09:15:02;2.45;;;1.20;;
17365;SDS011;8800;50.118;9.900;2023-11-19T09:17:29;3.72;;;1.60;;
17365;SDS011;8800;50.118;9.900;2023-11-19T09:19:57;4.93;;;1.30;;
17365;SDS011;8800;50.118;9.900;2023-11-19T09:22:24;3.88;;;1.50;;
17365;SDS011;8800;50.118;9.900;2023-11-19T09:24:50;3.00;;;1.60;;
17365;SDS011;8800;50.118;9.900;2023-11-19T09:27:17;5.45;;;1.42;;
17365;SDS011;8800;50.118;9.900;2023-11-19T09:29:44;6.55;;;2.22;;
17365;SDS011;8800;50.118;9.900;2023-11-19T09:32:11;6.57;;;1.70;;
17365;SDS011;8800;50.118;9.900;2023-11-19T09:34:38;6.68;;;2.38;;
17365;SDS011;8800;50.118;9.900;2023-11-19T09:37:06;4.22;;;1.92;;
17365;SDS011;8800;50.118;9.900;2023-11-19T09:39:33;8.52;;;2.20;;
17365;SDS011;8800;50.118;9.900;2023-11-19T09:41:59;9.10;;;2.80;;
17365;SDS011;8800;50.118;9.900;2023-11-19T09:44:26;8.93;;;2.75;;
17365;SDS011;8800;50.118;9.900;2023-11-19T09:46:53;8.50;;;3.03;;
17365;SDS011;8800;50.118;9.900;2023-11-19T09:49:20;9.18;;;2.70;;
17365;SDS011;8800;50.118;9.900;2023-11-19T09:51:47;8.95;;;2.97;;
17365;SDS011;8800;50.118;9.900;2023-11-19T09:54:16;14.07;;;3.83;;
17365;SDS011;8800;50.118;9.900;2023-11-19T09:56:42;6.85;;;2.70;;
17365;SDS011;8800;50.118;9.900;2023-11-19T09:59:10;7.15;;;2.70;;
17365;SDS011;8800;50.118;9.900;2023-11-19T10:01:37;6.35;;;2.75;;
17365;SDS011;8800;50.118;9.900;2023-11-19T10:04:05;6.07;;;2.10;;
17365;SDS011;8800;50.118;9.900;2023-11-19T10:06:32;5.30;;;1.70;;
17365;SDS011;8800;50.118;9.900;2023-11-19T10:08:59;6.20;;;1.70;;
17365;SDS011;8800;50.118;9.900;2023-11-19T10:11:27;5.25;;;1.60;;
17365;SDS011;8800;50.118;9.900;2023-11-19T10:13:54;3.88;;;1.08;;
17365;SDS011;8800;50.118;9.900;2023-11-19T10:16:21;4.40;;;1.48;;
17365;SDS011;8800;50.118;9.900;2023-11-19T10:18:55;6.03;;;1.60;;
17365;SDS011;8800;50.118;9.900;2023-11-19T10:21:21;5.13;;;1.55;;
17365;SDS011;8800;50.118;9.900;2023-11-19T10:23:49;3.42;;;1.30;;
17365;SDS011;8800;50.118;9.900;2023-11-19T10:26:17;4.25;;;1.60;;
17365;SDS011;8800;50.118;9.900;2023-11-19T10:28:46;8.30;;;1.58;;
17365;SDS011;8800;50.118;9.900;2023-11-19T10:31:12;3.03;;;1.33;;
17365;SDS011;8800;50.118;9.900;2023-11-19T10:33:39;3.00;;;1.27;;
17365;SDS011;8800;50.118;9.900;2023-11-19T10:36:06;2.92;;;1.23;;
17365;SDS011;8800;50.118;9.900;2023-11-19T10:38:33;4.55;;;1.10;;
17365;SDS011;8800;50.118;9.900;2023-11-19T10:40:59;2.75;;;1.40;;
17365;SDS011;8800;50.118;9.900;2023-11-19T10:43:26;7.97;;;2.17;;
17365;SDS011;8800;50.118;9.900;2023-11-19T10:45:54;7.75;;;2.70;;
17365;SDS011;8800;50.118;9.900;2023-11-19T10:48:35;3.70;;;1.42;;
17365;SDS011;8800;50.118;9.900;2023-11-19T10:51:02;1.70;;;1.00;;
17365;SDS011;8800;50.118;9.900;2023-11-19T10:53:31;3.22;;;1.20;;
17365;SDS011;8800;50.118;9.900;2023-11-19T10:56:00;5.35;;;1.50;;
17365;SDS011;8800;50.118;9.900;2023-11-19T10:58:28;6.82;;;1.55;;
17365;SDS011;8800;50.118;9.900;2023-11-19T11:00:57;7.57;;;1.17;;
17365;SDS011;8800;50.118;9.900;2023-11-19T11:03:24;5.10;;;1.70;;
17365;SDS011;8800;50.118;9.900;2023-11-19T11:05:52;3.42;;;1.23;;
17365;SDS011;8800;50.118;9.900;2023-11-19T11:08:19;4.57;;;1.10;;
17365;SDS011;8800;50.118;9.900;2023-11-19T11:10:48;6.18;;;1.20;;
17365;SDS011;8800;50.118;9.900;2023-11-19T11:13:18;6.72;;;1.40;;
17365;SDS011;8800;50.118;9.900;2023-11-19T11:15:45;6.65;;;1.75;;
17365;SDS011;8800;50.118;9.900;2023-11-19T11:18:13;5.60;;;1.40;;
17365;SDS011;8800;50.118;9.900;2023-11-19T11:20:40;5.40;;;1.60;;
17365;SDS011;8800;50.118;9.900;2023-11-19T11:25:50;5.63;;;1.33;;
17365;SDS011;8800;50.118;9.900;2023-11-19T11:28:22;5.82;;;1.60;;
17365;SDS011;8800;50.118;9.900;2023-11-19T11:30:55;4.25;;;1.30;;
17365;SDS011;8800;50.118;9.900;2023-11-19T11:33:32;8.65;;;1.58;;
17365;SDS011;8800;50.118;9.900;2023-11-19T11:36:03;5.10;;;1.40;;
17365;SDS011;8800;50.118;9.900;2023-11-19T11:38:36;7.53;;;1.92;;
17365;SDS011;8800;50.118;9.900;2023-11-19T11:43:51;6.80;;;2.00;;
17365;SDS011;8800;50.118;9.900;2023-11-19T11:49:04;6.05;;;1.40;;
17365;SDS011;8800;50.118;9.900;2023-11-19T11:54:25;7.43;;;1.98;;
17365;SDS011;8800;50.118;9.900;2023-11-19T11:57:00;8.00;;;1.50;;
17365;SDS011;8800;50.118;9.900;2023-11-19T11:59:31;7.80;;;2.08;;
17365;SDS011;8800;50.118;9.900;2023-11-19T12:01:58;5.75;;;1.60;;
17365;SDS011;8800;50.118;9.900;2023-11-19T12:04:27;6.03;;;1.92;;
17365;SDS011;8800;50.118;9.900;2023-11-19T12:07:02;9.02;;;2.30;;
17365;SDS011;8800;50.118;9.900;2023-11-19T12:09:29;7.97;;;2.35;;
17365;SDS011;8800;50.118;9.900;2023-11-19T12:12:06;8.73;;;2.83;;
17365;SDS011;8800;50.118;9.900;2023-11-19T12:20:08;5.00;;;1.65;;
17365;SDS011;8800;50.118;9.900;2023-11-19T12:22:36;6.03;;;2.30;;
17365;SDS011;8800;50.118;9.900;2023-11-19T12:25:04;6.07;;;1.60;;
17365;SDS011;8800;50.118;9.900;2023-11-19T12:27:31;5.15;;;1.48;;
17365;SDS011;8800;50.118;9.900;2023-11-19T12:30:01;6.38;;;1.50;;
17365;SDS011;8800;50.118;9.900;2023-11-19T12:32:37;5.40;;;1.50;;
17365;SDS011;8800;50.118;9.900;2023-11-19T12:35:03;5.28;;;1.40;;
17365;SDS011;8800;50.118;9.900;2023-11-19T12:37:31;7.38;;;1.58;;
17365;SDS011;8800;50.118;9.900;2023-11-19T12:39:58;7.68;;;2.10;;
17365;SDS011;8800;50.118;9.900;2023-11-19T12:42:34;13.90;;;2.75;;
17365;SDS011;8800;50.118;9.900;2023-11-19T12:45:01;9.23;;;2.17;;
17365;SDS011;8800;50.118;9.900;2023-11-19T12:47:28;9.15;;;2.05;;
17365;SDS011;8800;50.118;9.900;2023-11-19T12:49:55;9.48;;;1.75;;
17365;SDS011;8800;50.118;9.900;2023-11-19T12:52:22;9.38;;;2.05;;
17365;SDS011;8800;50.118;9.900;2023-11-19T12:54:51;15.05;;;5.00;;
17365;SDS011;8800;50.118;9.900;2023-11-19T12:57:18;8.38;;;2.30;;
17365;SDS011;8800;50.118;9.900;2023-11-19T12:59:54;7.55;;;2.03;;
17365;SDS011;8800;50.118;9.900;2023-11-19T13:02:20;11.43;;;3.28;;
17365;SDS011;8800;50.118;9.900;2023-11-19T13:04:48;7.40;;;2.60;;
17365;SDS011;8800;50.118;9.900;2023-11-19T13:07:20;11.15;;;3.97;;
17365;SDS011;8800;50.118;9.900;2023-11-19T13:09:46;16.38;;;5.10;;
17365;SDS011;8800;50.118;9.900;2023-11-19T13:12:15;9.15;;;3.95;;
17365;SDS011;8800;50.118;9.900;2023-11-19T13:14:41;7.10;;;2.50;;
17365;SDS011;8800;50.118;9.900;2023-11-19T13:17:07;8.25;;;2.63;;
17365;SDS011;8800;50.118;9.900;2023-11-19T13:19:34;10.90;;;2.88;;
17365;SDS011;8800;50.118;9.900;2023-11-19T13:22:00;9.20;;;2.42;;
17365;SDS011;8800;50.118;9.900;2023-11-19T13:24:27;12.13;;;3.08;;
17365;SDS011;8800;50.118;9.900;2023-11-19T13:26:53;7.70;;;2.75;;
17365;SDS011;8800;50.118;9.900;2023-11-19T13:29:22;7.57;;;2.95;;
17365;SDS011;8800;50.118;9.900;2023-11-19T13:31:49;15.85;;;3.25;;
17365;SDS011;8800;50.118;9.900;2023-11-19T13:34:15;6.10;;;2.40;;
17365;SDS011;8800;50.118;9.900;2023-11-19T13:36:42;9.13;;;2.85;;
17365;SDS011;8800;50.118;9.900;2023-11-19T13:39:09;11.07;;;3.20;;
17365;SDS011;8800;50.118;9.900;2023-11-19T13:41:37;10.43;;;3.15;;
17365;SDS011;8800;50.118;9.900;2023-11-19T13:44:04;10.63;;;3.25;;
17365;SDS011;8800;50.118;9.900;2023-11-19T13:46:32;9.07;;;2.60;;
17365;SDS011;8800;50.118;9.900;2023-11-19T13:48:59;8.90;;;2.45;;
17365;SDS011;8800;50.118;9.900;2023-11-19T13:51:28;13.25;;;2.63;;
17365;SDS011;8800;50.118;9.900;2023-11-19T13:53:55;7.55;;;2.00;;
17365;SDS011;8800;50.118;9.900;2023-11-19T13:56:22;9.02;;;2.63;;
17365;SDS011;8800;50.118;9.900;2023-11-19T13:58:48;15.50;;;3.85;;
17365;SDS011;8800;50.118;9.900;2023-11-19T14:01:15;13.23;;;2.80;;
17365;SDS011;8800;50.118;9.900;2023-11-19T14:03:43;8.90;;;3.08;;
17365;SDS011;8800;50.118;9.900;2023-11-19T14:06:10;13.90;;;2.63;;
17365;SDS011;8800;50.118;9.900;2023-11-19T14:08:37;10.13;;;1.98;;
17365;SDS011;8800;50.118;9.900;2023-11-19T14:11:05;11.52;;;2.70;;
17365;SDS011;8800;50.118;9.900;2023-11-19T14:13:31;11.15;;;2.63;;
17365;SDS011;8800;50.118;9.900;2023-11-19T14:15:58;14.38;;;1.95;;
17365;SDS011;8800;50.118;9.900;2023-11-19T14:18:25;11.73;;;3.65;;
17365;SDS011;8800;50.118;9.900;2023-11-19T14:20:52;13.07;;;3.15;;
17365;SDS011;8800;50.118;9.900;2023-11-19T14:23:19;10.60;;;2.35;;
17365;SDS011;8800;50.118;9.900;2023-11-19T14:25:46;14.23;;;3.97;;
17365;SDS011;8800;50.118;9.900;2023-11-19T14:28:14;13.05;;;3.83;;
17365;SDS011;8800;50.118;9.900;2023-11-19T14:30:42;15.30;;;3.75;;
17365;SDS011;8800;50.118;9.900;2023-11-19T14:33:10;10.23;;;3.55;;
17365;SDS011;8800;50.118;9.900;2023-11-19T14:35:37;10.00;;;2.53;;
17365;SDS011;8800;50.118;9.900;2023-11-19T14:38:05;8.70;;;2.40;;
17365;SDS011;8800;50.118;9.900;2023-11-19T14:40:35;11.43;;;2.58;;
17365;SDS011;8800;50.118;9.900;2023-11-19T14:43:01;13.85;;;2.88;;
17365;SDS011;8800;50.118;9.900;2023-11-19T14:45:28;7.03;;;2.45;;
17365;SDS011;8800;50.118;9.900;2023-11-19T14:47:55;8.75;;;2.72;;
17365;SDS011;8800;50.118;9.900;2023-11-19T14:50:22;7.57;;;2.38;;
17365;SDS011;8800;50.118;9.900;2023-11-19T14:52:49;10.68;;;2.45;;
17365;SDS011;8800;50.118;9.900;2023-11-19T14:55:17;7.90;;;2.28;;
17365;SDS011;8800;50.118;9.900;2023-11-19T14:57:44;5.38;;;2.05;;
17365;SDS011;8800;50.118;9.900;2023-11-19T15:00:11;10.77;;;1.70;;
17365;SDS011;8800;50.118;9.900;2023-11-19T15:02:39;10.88;;;1.48;;
17365;SDS011;8800;50.118;9.900;2023-11-19T15:05:06;11.93;;;1.83;;
17365;SDS011;8800;50.118;9.900;2023-11-19T15:07:35;8.40;;;1.88;;
17365;SDS011;8800;50.118;9.900;2023-11-19T15:10:01;9.95;;;1.92;;